sensor_id;sensor_type;location;lat;lon;timestamp;temperature;humidity
11925;DHT22;6022;48.768;18.608;2023-04-01T00:01:12;10.10;99.90
11925;DHT22;6022;48.768;18.608;2023-04-01T00:03:44;10.20;99.90
11925;DHT22;6022;48.768;18.608;2023-04-01T00:06:16;10.20;99.90
11925;DHT22;6022;48.768;18.608;2023-04-01T00:08:45;10.40;99.90
11925;DHT22;6022;48.768;18.608;2023-04-01T00:11:13;10.20;99.90
11925;DHT22;6022;48.768;18.608;2023-04-01T00:13:42;10.10;99.90
11925;DHT22;6022;48.768;18.608;2023-04-01T00:16:09;10.20;99.90
11925;DHT22;6022;48.768;18.608;2023-04-01T00:18:48;10.20;99.90
11925;DHT22;6022;48.768;18.608;2023-04-01T00:21:17;10.20;99.90
11925;DHT22;6022;48.768;18.608;2023-04-01T00:23:45;10.30;99.90
11925;DHT22;6022;48.768;18.608;2023-04-01T00:26:12;10.10;99.90
11925;DHT22;6022;48.768;18.608;2023-04-01T00:28:42;10.00;99.90
11925;DHT22;6022;48.768;18.608;2023-04-01T00:31:10;10.20;99.90
11925;DHT22;6022;48.768;18.608;2023-04-01T00:33:38;10.20;99.90
11925;DHT22;6022;48.768;18.608;2023-04-01T00:38:36;10.10;99.90
11925;DHT22;6022;48.768;18.608;2023-04-01T00:41:05;10.10;99.90
11925;DHT22;6022;48.768;18.608;2023-04-01T00:43:33;9.80;99.90
11925;DHT22;6022;48.768;18.608;2023-04-01T00:46:01;10.00;99.90
11925;DHT22;6022;48.768;18.608;2023-04-01T00:48:34;10.10;99.90
11925;DHT22;6022;48.768;18.608;2023-04-01T00:51:09;9.60;99.90
11925;DHT22;6022;48.768;18.608;2023-04-01T00:53:44;9.70;99.90
11925;DHT22;6022;48.768;18.608;2023-04-01T00:56:17;9.70;99.90
11925;DHT22;6022;48.768;18.608;2023-04-01T00:58:53;9.70;99.90
11925;DHT22;6022;48.768;18.608;2023-04-01T01:01:25;9.50;99.90
11925;DHT22;6022;48.768;18.608;2023-04-01T01:03:53;9.80;99.90
11925;DHT22;6022;48.768;18.608;2023-04-01T01:09:24;9.70;99.90
11925;DHT22;6022;48.768;18.608;2023-04-01T01:15:01;9.70;99.90
11925;DHT22;6022;48.768;18.608;2023-04-01T01:18:18;9.70;99.90
11925;DHT22;6022;48.768;18.608;2023-04-01T01:23:45;9.50;99.90
11925;DHT22;6022;48.768;18.608;2023-04-01T01:26:53;9.60;99.90
11925;DHT22;6022;48.768;18.608;2023-04-01T01:36:06;9.10;99.90
11925;DHT22;6022;48.768;18.608;2023-04-01T01:38:37;9.50;99.90
11925;DHT22;6022;48.768;18.608;2023-04-01T01:41:07;9.40;99.90
11925;DHT22;6022;48.768;18.608;2023-04-01T01:43:40;9.30;99.90
11925;DHT22;6022;48.768;18.608;2023-04-01T01:46:13;9.30;99.90
11925;DHT22;6022;48.768;18.608;2023-04-01T01:48:44;9.30;99.90
11925;DHT22;6022;48.768;18.608;2023-04-01T01:51:14;9.50;99.90
11925;DHT22;6022;48.768;18.608;2023-04-01T01:53:43;9.10;99.90
11925;DHT22;6022;48.768;18.608;2023-04-01T01:56:11;9.40;99.90
11925;DHT22;6022;48.768;18.608;2023-04-01T01:58:52;9.40;99.90
11925;DHT22;6022;48.768;18.608;2023-04-01T02:01:27;9.40;99.90
11925;DHT22;6022;48.768;18.608;2023-04-01T02:03:58;9.40;99.90
11925;DHT22;6022;48.768;18.608;2023-04-01T02:06:29;9.50;99.90
11925;DHT22;6022;48.768;18.608;2023-04-01T02:09:01;9.40;99.90
11925;DHT22;6022;48.768;18.608;2023-04-01T02:14:55;9.20;99.90
11925;DHT22;6022;48.768;18.608;2023-04-01T02:17:13;9.20;99.90
11925;DHT22;6022;48.768;18.608;2023-04-01T02:22:24;9.20;99.90
11925;DHT22;6022;48.768;18.608;2023-04-01T02:24:58;9.30;99.90
11925;DHT22;6022;48.768;18.608;2023-04-01T02:27:28;9.20;99.90
11925;DHT22;6022;48.768;18.608;2023-04-01T02:29:57;9.40;99.90
11925;DHT22;6022;48.768;18.608;2023-04-01T02:32:25;9.20;99.90
11925;DHT22;6022;48.768;18.608;2023-04-01T02:34:56;9.30;99.90
11925;DHT22;6022;48.768;18.608;2023-04-01T02:37:25;9.40;99.90
11925;DHT22;6022;48.768;18.608;2023-04-01T02:39:53;9.30;99.90
11925;DHT22;6022;48.768;18.608;2023-04-01T02:42:20;9.10;99.90
11925;DHT22;6022;48.768;18.608;2023-04-01T02:44:47;9.10;99.90
11925;DHT22;6022;48.768;18.608;2023-04-01T02:47:14;9.00;99.90
11925;DHT22;6022;48.768;18.608;2023-04-01T02:49:42;9.00;99.90
11925;DHT22;6022;48.768;18.608;2023-04-01T02:52:09;9.00;99.90
11925;DHT22;6022;48.768;18.608;2023-04-01T02:54:36;9.20;99.90
11925;DHT22;6022;48.768;18.608;2023-04-01T02:57:03;9.00;99.90
11925;DHT22;6022;48.768;18.608;2023-04-01T02:59:31;9.00;99.90
11925;DHT22;6022;48.768;18.608;2023-04-01T03:01:58;9.00;99.90
11925;DHT22;6022;48.768;18.608;2023-04-01T03:04:26;9.00;99.90
11925;DHT22;6022;48.768;18.608;2023-04-01T03:06:53;8.80;99.90
11925;DHT22;6022;48.768;18.608;2023-04-01T03:09:21;8.80;99.90
11925;DHT22;6022;48.768;18.608;2023-04-01T03:11:48;8.80;99.90
11925;DHT22;6022;48.768;18.608;2023-04-01T03:14:16;8.80;99.90
11925;DHT22;6022;48.768;18.608;2023-04-01T03:16:45;8.70;99.90
11925;DHT22;6022;48.768;18.608;2023-04-01T03:19:15;8.80;99.90
11925;DHT22;6022;48.768;18.608;2023-04-01T03:21:42;8.80;99.90
11925;DHT22;6022;48.768;18.608;2023-04-01T03:24:09;8.80;99.90
11925;DHT22;6022;48.768;18.608;2023-04-01T03:26:37;8.90;99.90
11925;DHT22;6022;48.768;18.608;2023-04-01T03:29:04;8.80;99.90
11925;DHT22;6022;48.768;18.608;2023-04-01T03:31:31;8.90;99.90
11925;DHT22;6022;48.768;18.608;2023-04-01T03:33:59;8.60;99.90
11925;DHT22;6022;48.768;18.608;2023-04-01T03:36:28;8.50;99.90
11925;DHT22;6022;48.768;18.608;2023-04-01T03:38:55;8.40;99.90
11925;DHT22;6022;48.768;18.608;2023-04-01T03:41:22;8.50;99.90
11925;DHT22;6022;48.768;18.608;2023-04-01T03:43:49;8.20;99.90
11925;DHT22;6022;48.768;18.608;2023-04-01T03:46:18;8.10;99.90
11925;DHT22;6022;48.768;18.608;2023-04-01T03:48:46;8.20;99.90
11925;DHT22;6022;48.768;18.608;2023-04-01T03:51:13;8.50;99.90
11925;DHT22;6022;48.768;18.608;2023-04-01T03:53:41;8.30;99.90
11925;DHT22;6022;48.768;18.608;2023-04-01T03:56:08;8.50;99.90
11925;DHT22;6022;48.768;18.608;2023-04-01T03:58:36;8.50;99.90
11925;DHT22;6022;48.768;18.608;2023-04-01T04:01:20;8.40;99.90
11925;DHT22;6022;48.768;18.608;2023-04-01T04:03:48;8.50;99.90
11925;DHT22;6022;48.768;18.608;2023-04-01T04:06:18;8.40;99.90
11925;DHT22;6022;48.768;18.608;2023-04-01T04:08:46;8.50;99.90
11925;DHT22;6022;48.768;18.608;2023-04-01T04:11:13;8.40;99.90
11925;DHT22;6022;48.768;18.608;2023-04-01T04:13:41;8.40;99.90
11925;DHT22;6022;48.768;18.608;2023-04-01T04:16:09;8.40;99.90
11925;DHT22;6022;48.768;18.608;2023-04-01T04:18:37;8.50;99.90
11925;DHT22;6022;48.768;18.608;2023-04-01T04:21:05;8.30;99.90
11925;DHT22;6022;48.768;18.608;2023-04-01T04:23:32;8.40;99.90
11925;DHT22;6022;48.768;18.608;2023-04-01T04:26:03;8.00;99.90
11925;DHT22;6022;48.768;18.608;2023-04-01T04:28:35;8.40;99.90
11925;DHT22;6022;48.768;18.608;2023-04-01T04:31:03;8.40;99.90
11925;DHT22;6022;48.768;18.608;2023-04-01T04:33:32;8.40;99.90
11925;DHT22;6022;48.768;18.608;2023-04-01T04:36:01;8.20;99.90
11925;DHT22;6022;48.768;18.608;2023-04-01T04:38:29;8.30;99.90
11925;DHT22;6022;48.768;18.608;2023-04-01T04:40:57;8.10;99.90
11925;DHT22;6022;48.768;18.608;2023-04-01T04:43:25;8.30;99.90
11925;DHT22;6022;48.768;18.608;2023-04-01T04:45:52;8.00;99.90
11925;DHT22;6022;48.768;18.608;2023-04-01T04:48:19;8.00;99.90
11925;DHT22;6022;48.768;18.608;2023-04-01T04:50:50;8.30;99.90
11925;DHT22;6022;48.768;18.608;2023-04-01T04:53:19;8.30;99.90
11925;DHT22;6022;48.768;18.608;2023-04-01T04:55:49;8.30;99.90
11925;DHT22;6022;48.768;18.608;2023-04-01T04:58:17;8.40;99.90
11925;DHT22;6022;48.768;18.608;2023-04-01T05:00:45;8.00;99.90
11925;DHT22;6022;48.768;18.608;2023-04-01T05:03:13;8.20;99.90
11925;DHT22;6022;48.768;18.608;2023-04-01T05:05:51;8.20;99.90
11925;DHT22;6022;48.768;18.608;2023-04-01T05:08:20;8.40;99.90
11925;DHT22;6022;48.768;18.608;2023-04-01T05:10:47;8.00;99.90
11925;DHT22;6022;48.768;18.608;2023-04-01T05:13:14;8.40;99.90
11925;DHT22;6022;48.768;18.608;2023-04-01T05:15:44;8.30;99.90
11925;DHT22;6022;48.768;18.608;2023-04-01T05:18:11;8.30;99.90
11925;DHT22;6022;48.768;18.608;2023-04-01T05:20:38;8.50;99.90
11925;DHT22;6022;48.768;18.608;2023-04-01T05:23:05;8.40;99.90
11925;DHT22;6022;48.768;18.608;2023-04-01T05:25:33;8.60;99.90
11925;DHT22;6022;48.768;18.608;2023-04-01T05:28:00;8.50;99.90
11925;DHT22;6022;48.768;18.608;2023-04-01T05:30:30;8.80;99.90
11925;DHT22;6022;48.768;18.608;2023-04-01T05:32:57;8.60;99.90
11925;DHT22;6022;48.768;18.608;2023-04-01T05:35:26;8.60;99.90
11925;DHT22;6022;48.768;18.608;2023-04-01T05:37:54;8.90;99.90
11925;DHT22;6022;48.768;18.608;2023-04-01T05:40:21;8.60;99.90
11925;DHT22;6022;48.768;18.608;2023-04-01T05:42:51;8.80;99.90
11925;DHT22;6022;48.768;18.608;2023-04-01T05:45:19;8.70;99.90
11925;DHT22;6022;48.768;18.608;2023-04-01T05:47:46;8.70;99.90
11925;DHT22;6022;48.768;18.608;2023-04-01T05:50:13;9.00;99.90
11925;DHT22;6022;48.768;18.608;2023-04-01T05:52:41;8.60;99.90
11925;DHT22;6022;48.768;18.608;2023-04-01T05:55:09;9.10;99.90
11925;DHT22;6022;48.768;18.608;2023-04-01T05:57:36;8.90;99.90
11925;DHT22;6022;48.768;18.608;2023-04-01T06:00:04;8.90;99.90
11925;DHT22;6022;48.768;18.608;2023-04-01T06:02:32;9.00;99.90
11925;DHT22;6022;48.768;18.608;2023-04-01T06:08:08;9.20;99.90
11925;DHT22;6022;48.768;18.608;2023-04-01T06:25:43;10.30;99.90
11925;DHT22;6022;48.768;18.608;2023-04-01T06:36:57;9.90;99.90
11925;DHT22;6022;48.768;18.608;2023-04-01T06:42:33;10.00;99.90
11925;DHT22;6022;48.768;18.608;2023-04-01T06:45:36;9.70;99.90
11925;DHT22;6022;48.768;18.608;2023-04-01T06:54:11;9.70;99.90
11925;DHT22;6022;48.768;18.608;2023-04-01T06:56:45;10.00;99.90
11925;DHT22;6022;48.768;18.608;2023-04-01T06:59:25;10.00;99.90
11925;DHT22;6022;48.768;18.608;2023-04-01T07:01:54;10.60;99.90
11925;DHT22;6022;48.768;18.608;2023-04-01T07:04:30;10.60;99.90
11925;DHT22;6022;48.768;18.608;2023-04-01T07:07:28;10.80;99.90
11925;DHT22;6022;48.768;18.608;2023-04-01T07:09:58;10.60;99.90
11925;DHT22;6022;48.768;18.608;2023-04-01T07:12:42;10.60;99.90
11925;DHT22;6022;48.768;18.608;2023-04-01T07:15:35;10.70;99.90
11925;DHT22;6022;48.768;18.608;2023-04-01T07:18:18;10.70;99.90
11925;DHT22;6022;48.768;18.608;2023-04-01T07:20:52;10.70;99.90
11925;DHT22;6022;48.768;18.608;2023-04-01T07:23:29;10.50;99.90
11925;DHT22;6022;48.768;18.608;2023-04-01T07:26:23;10.70;99.90
11925;DHT22;6022;48.768;18.608;2023-04-01T07:28:52;10.40;99.90
11925;DHT22;6022;48.768;18.608;2023-04-01T07:34:27;10.60;99.90
11925;DHT22;6022;48.768;18.608;2023-04-01T07:37:06;10.50;99.90
11925;DHT22;6022;48.768;18.608;2023-04-01T07:52:19;10.60;99.90
11925;DHT22;6022;48.768;18.608;2023-04-01T07:55:09;10.50;99.90
11925;DHT22;6022;48.768;18.608;2023-04-01T07:58:15;10.40;99.90
11925;DHT22;6022;48.768;18.608;2023-04-01T08:03:59;10.60;99.90
11925;DHT22;6022;48.768;18.608;2023-04-01T08:10:13;10.40;99.90
11925;DHT22;6022;48.768;18.608;2023-04-01T08:16:20;10.50;99.90
11925;DHT22;6022;48.768;18.608;2023-04-01T08:21:58;10.90;99.90
11925;DHT22;6022;48.768;18.608;2023-04-01T08:24:45;11.90;99.90
11925;DHT22;6022;48.768;18.608;2023-04-01T08:27:37;11.50;99.90
11925;DHT22;6022;48.768;18.608;2023-04-01T08:30:21;11.70;99.90
11925;DHT22;6022;48.768;18.608;2023-04-01T08:38:57;11.20;99.90
11925;DHT22;6022;48.768;18.608;2023-04-01T08:57:28;10.80;99.90
11925;DHT22;6022;48.768;18.608;2023-04-01T09:00:22;10.70;99.90
11925;DHT22;6022;48.768;18.608;2023-04-01T09:30:31;11.00;99.90
11925;DHT22;6022;48.768;18.608;2023-04-01T09:47:51;10.70;99.90
11925;DHT22;6022;48.768;18.608;2023-04-01T09:53:41;11.00;99.90
11925;DHT22;6022;48.768;18.608;2023-04-01T10:02:48;10.80;99.90
11925;DHT22;6022;48.768;18.608;2023-04-01T10:15:15;11.00;99.90
11925;DHT22;6022;48.768;18.608;2023-04-01T10:21:17;11.00;99.90
11925;DHT22;6022;48.768;18.608;2023-04-01T10:55:04;11.40;99.90
11925;DHT22;6022;48.768;18.608;2023-04-01T10:58:08;11.70;99.90
11925;DHT22;6022;48.768;18.608;2023-04-01T11:23:50;12.20;99.90
11925;DHT22;6022;48.768;18.608;2023-04-01T11:41:46;12.20;99.90
11925;DHT22;6022;48.768;18.608;2023-04-01T11:44:29;12.00;99.90
11925;DHT22;6022;48.768;18.608;2023-04-01T11:47:10;11.80;99.90
11925;DHT22;6022;48.768;18.608;2023-04-01T11:50:03;12.00;99.90
11925;DHT22;6022;48.768;18.608;2023-04-01T12:01:40;12.60;99.90
11925;DHT22;6022;48.768;18.608;2023-04-01T12:15:54;12.50;99.90
11925;DHT22;6022;48.768;18.608;2023-04-01T12:27:45;11.70;99.90
11925;DHT22;6022;48.768;18.608;2023-04-01T12:31:22;12.00;99.90
11925;DHT22;6022;48.768;18.608;2023-04-01T12:37:32;11.90;99.90
11925;DHT22;6022;48.768;18.608;2023-04-01T13:12:51;13.20;99.90
11925;DHT22;6022;48.768;18.608;2023-04-01T13:18:54;13.50;99.90
11925;DHT22;6022;48.768;18.608;2023-04-01T13:33:50;13.60;99.90
11925;DHT22;6022;48.768;18.608;2023-04-01T13:42:24;13.80;99.90
11925;DHT22;6022;48.768;18.608;2023-04-01T13:45:08;13.80;99.90
11925;DHT22;6022;48.768;18.608;2023-04-01T13:47:55;13.80;99.90
11925;DHT22;6022;48.768;18.608;2023-04-01T13:53:37;13.80;99.90
11925;DHT22;6022;48.768;18.608;2023-04-01T14:08:13;13.40;99.90
11925;DHT22;6022;48.768;18.608;2023-04-01T14:11:18;12.90;99.90
11925;DHT22;6022;48.768;18.608;2023-04-01T14:14:17;12.60;99.90
11925;DHT22;6022;48.768;18.608;2023-04-01T14:17:24;12.30;99.90
11925;DHT22;6022;48.768;18.608;2023-04-01T14:26:40;11.80;99.90
11925;DHT22;6022;48.768;18.608;2023-04-01T14:32:47;11.60;99.90
11925;DHT22;6022;48.768;18.608;2023-04-01T14:35:41;12.00;99.90
11925;DHT22;6022;48.768;18.608;2023-04-01T14:38:39;11.80;99.90
11925;DHT22;6022;48.768;18.608;2023-04-01T14:49:51;12.20;99.90
11925;DHT22;6022;48.768;18.608;2023-04-01T14:52:35;11.90;99.90
11925;DHT22;6022;48.768;18.608;2023-04-01T14:55:28;12.00;99.90
11925;DHT22;6022;48.768;18.608;2023-04-01T15:10:02;12.10;99.90
11925;DHT22;6022;48.768;18.608;2023-04-01T15:24:22;12.10;99.90
11925;DHT22;6022;48.768;18.608;2023-04-01T15:33:46;11.80;99.90
11925;DHT22;6022;48.768;18.608;2023-04-01T15:36:47;11.80;99.90
11925;DHT22;6022;48.768;18.608;2023-04-01T16:07:02;12.20;99.90
11925;DHT22;6022;48.768;18.608;2023-04-01T16:16:25;12.10;99.90
11925;DHT22;6022;48.768;18.608;2023-04-01T16:22:32;12.30;99.90
11925;DHT22;6022;48.768;18.608;2023-04-01T16:25:32;12.30;99.90
11925;DHT22;6022;48.768;18.608;2023-04-01T16:28:31;12.20;99.90
11925;DHT22;6022;48.768;18.608;2023-04-01T16:31:25;12.20;99.90
11925;DHT22;6022;48.768;18.608;2023-04-01T16:34:24;12.20;99.90
11925;DHT22;6022;48.768;18.608;2023-04-01T16:37:17;12.10;99.90
11925;DHT22;6022;48.768;18.608;2023-04-01T16:42:52;12.00;99.90
11925;DHT22;6022;48.768;18.608;2023-04-01T16:45:42;11.80;99.90
11925;DHT22;6022;48.768;18.608;2023-04-01T16:54:41;11.90;99.90
11925;DHT22;6022;48.768;18.608;2023-04-01T17:03:08;11.90;99.90
11925;DHT22;6022;48.768;18.608;2023-04-01T17:15:31;11.60;99.90
11925;DHT22;6022;48.768;18.608;2023-04-01T17:18:27;11.80;99.90
11925;DHT22;6022;48.768;18.608;2023-04-01T17:30:31;11.60;99.90
11925;DHT22;6022;48.768;18.608;2023-04-01T17:36:02;11.80;99.90
11925;DHT22;6022;48.768;18.608;2023-04-01T17:41:59;11.50;99.90
11925;DHT22;6022;48.768;18.608;2023-04-01T17:44:43;11.50;99.90
11925;DHT22;6022;48.768;18.608;2023-04-01T17:47:29;11.20;99.90
11925;DHT22;6022;48.768;18.608;2023-04-01T17:50:22;11.50;99.90
11925;DHT22;6022;48.768;18.608;2023-04-01T17:53:14;11.10;99.90
11925;DHT22;6022;48.768;18.608;2023-04-01T17:56:08;10.90;99.90
11925;DHT22;6022;48.768;18.608;2023-04-01T17:58:55;11.00;99.90
11925;DHT22;6022;48.768;18.608;2023-04-01T18:01:40;10.90;99.90
11925;DHT22;6022;48.768;18.608;2023-04-01T18:25:48;10.90;99.90
11925;DHT22;6022;48.768;18.608;2023-04-01T18:31:11;10.70;99.90
11925;DHT22;6022;48.768;18.608;2023-04-01T18:34:07;10.40;99.90
11925;DHT22;6022;48.768;18.608;2023-04-01T18:36:49;10.70;99.90
11925;DHT22;6022;48.768;18.608;2023-04-01T18:39:28;10.90;99.90
11925;DHT22;6022;48.768;18.608;2023-04-01T18:45:21;10.80;99.90
11925;DHT22;6022;48.768;18.608;2023-04-01T18:50:57;10.60;99.90
11925;DHT22;6022;48.768;18.608;2023-04-01T18:53:38;10.30;99.90
11925;DHT22;6022;48.768;18.608;2023-04-01T18:56:21;10.40;99.90
11925;DHT22;6022;48.768;18.608;2023-04-01T18:59:16;10.30;99.90
11925;DHT22;6022;48.768;18.608;2023-04-01T19:04:41;11.40;99.90
11925;DHT22;6022;48.768;18.608;2023-04-01T19:10:26;10.20;99.90
11925;DHT22;6022;48.768;18.608;2023-04-01T19:13:28;10.10;99.90
11925;DHT22;6022;48.768;18.608;2023-04-01T19:31:52;10.20;99.90
11925;DHT22;6022;48.768;18.608;2023-04-01T19:37:41;10.10;99.90
11925;DHT22;6022;48.768;18.608;2023-04-01T19:46:33;10.20;99.90
11925;DHT22;6022;48.768;18.608;2023-04-01T19:52:49;9.90;99.90
11925;DHT22;6022;48.768;18.608;2023-04-01T20:00:59;10.00;99.90
11925;DHT22;6022;48.768;18.608;2023-04-01T20:06:52;9.90;99.90
11925;DHT22;6022;48.768;18.608;2023-04-01T20:18:16;10.10;99.90
11925;DHT22;6022;48.768;18.608;2023-04-01T20:20:59;9.90;99.90
11925;DHT22;6022;48.768;18.608;2023-04-01T20:23:49;9.90;99.90
11925;DHT22;6022;48.768;18.608;2023-04-01T20:26:30;10.00;99.90
11925;DHT22;6022;48.768;18.608;2023-04-01T20:32:18;9.80;99.90
11925;DHT22;6022;48.768;18.608;2023-04-01T20:40:51;9.80;99.90
11925;DHT22;6022;48.768;18.608;2023-04-01T20:43:40;9.50;99.90
11925;DHT22;6022;48.768;18.608;2023-04-01T20:52:41;9.50;99.90
11925;DHT22;6022;48.768;18.608;2023-04-01T20:58:32;9.50;99.90
11925;DHT22;6022;48.768;18.608;2023-04-01T21:02:20;9.60;99.90
11925;DHT22;6022;48.768;18.608;2023-04-01T21:14:25;9.30;99.90
11925;DHT22;6022;48.768;18.608;2023-04-01T21:17:15;9.30;99.90
11925;DHT22;6022;48.768;18.608;2023-04-01T21:38:27;9.10;99.90
11925;DHT22;6022;48.768;18.608;2023-04-01T22:05:36;8.80;99.90
11925;DHT22;6022;48.768;18.608;2023-04-01T22:08:36;8.60;99.90
11925;DHT22;6022;48.768;18.608;2023-04-01T22:17:52;8.50;99.90
11925;DHT22;6022;48.768;18.608;2023-04-01T22:21:07;8.50;99.90
11925;DHT22;6022;48.768;18.608;2023-04-01T22:23:39;8.50;99.90
11925;DHT22;6022;48.768;18.608;2023-04-01T22:26:24;8.50;99.90
11925;DHT22;6022;48.768;18.608;2023-04-01T22:29:13;8.70;99.90
11925;DHT22;6022;48.768;18.608;2023-04-01T22:31:54;9.00;99.90
11925;DHT22;6022;48.768;18.608;2023-04-01T22:34:42;8.80;99.90
11925;DHT22;6022;48.768;18.608;2023-04-01T22:37:33;8.80;99.90
11925;DHT22;6022;48.768;18.608;2023-04-01T22:43:39;8.50;99.90
11925;DHT22;6022;48.768;18.608;2023-04-01T22:55:03;8.80;99.90
11925;DHT22;6022;48.768;18.608;2023-04-01T22:58:00;8.80;99.90
11925;DHT22;6022;48.768;18.608;2023-04-01T23:00:35;8.70;99.90
11925;DHT22;6022;48.768;18.608;2023-04-01T23:03:31;8.70;99.90
11925;DHT22;6022;48.768;18.608;2023-04-01T23:06:02;8.70;99.90
11925;DHT22;6022;48.768;18.608;2023-04-01T23:22:49;8.60;99.90
11925;DHT22;6022;48.768;18.608;2023-04-01T23:31:35;8.10;99.90
11925;DHT22;6022;48.768;18.608;2023-04-01T23:36:43;8.20;99.90
11925;DHT22;6022;48.768;18.608;2023-04-01T23:42:14;8.10;99.90
11925;DHT22;6022;48.768;18.608;2023-04-01T23:45:13;8.50;99.90
11925;DHT22;6022;48.768;18.608;2023-04-01T23:47:49;8.40;99.90
11925;DHT22;6022;48.768;18.608;2023-04-01T23:50:23;8.20;99.90
11925;DHT22;6022;48.768;18.608;2023-04-01T23:53:05;8.10;99.90
11925;DHT22;6022;48.768;18.608;2023-04-01T23:55:43;8.40;99.90
11925;DHT22;6022;48.768;18.608;2023-04-01T23:58:26;8.00;99.90
